Vananda, Canada
Current Conditions -  °F | °C
As of 7:00 PM on Saturday 22 Nov 2014 (Local Time) from CYPW Reporting Station
Broken Clouds Broken Clouds  
Wind Chill: 39°   Ceiling: 25000
Heat Index: 39°   Visibility: 20mi
Dew Point: 39°   Wind: 3mph
Humidity: 100%   Direction: 70°ENE
Pressure: 29.96"   Gusts: NA
Location:  49.76°N, 124.55°W
Report Text: CYPW 230300Z 07003KT 20SM FEW035 SCT090 BKN250 04/04 A2996 RMK SC2AC1CI3 LAST OBS/NEXT231500UTC SLP149
Loading
Personal Weather Stations






























Interactive Weather Map New forecast layout! Learn more

10-Day Weather Forecast

Advertisements
Track Severe Weather on mobile